createdAt,value
2023-02-16T00:01:35.606Z,19.45
2023-02-16T00:04:18.029Z,18.83
2023-02-16T00:06:44.771Z,18.80
2023-02-16T00:09:11.399Z,19.60
2023-02-16T00:11:57.965Z,17.52
2023-02-16T00:14:26.125Z,18.33
2023-02-16T00:16:53.748Z,18.23
2023-02-16T00:19:36.987Z,18.83
2023-02-16T00:22:04.293Z,20.83
2023-02-16T00:24:31.278Z,17.60
2023-02-16T00:26:58.280Z,17.77
2023-02-16T00:29:27.493Z,18.67
2023-02-16T00:31:55.090Z,16.95
2023-02-16T00:34:37.944Z,18.40
2023-02-16T00:37:06.635Z,17.60
2023-02-16T00:39:33.393Z,17.45
2023-02-16T00:42:03.064Z,18.70
2023-02-16T00:44:35.382Z,15.73
2023-02-16T00:47:08.808Z,14.50
2023-02-16T00:49:35.411Z,15.68
2023-02-16T00:52:02.005Z,18.42
2023-02-16T00:54:30.459Z,15.55
2023-02-16T00:56:58.240Z,14.90
2023-02-16T00:59:24.859Z,16.73
2023-02-16T01:01:51.464Z,15.45
2023-02-16T01:04:21.081Z,15.05
2023-02-16T01:07:07.771Z,14.45
2023-02-16T01:09:54.463Z,14.43
2023-02-16T01:12:21.179Z,14.40
2023-02-16T01:14:51.300Z,16.23
2023-02-16T01:17:18.013Z,16.55
2023-02-16T01:19:44.600Z,16.08
2023-02-16T01:22:11.246Z,16.27
2023-02-16T01:24:37.876Z,15.95
2023-02-16T01:27:04.458Z,15.80
2023-02-16T01:29:31.070Z,12.68
2023-02-16T01:31:57.830Z,14.18
2023-02-16T01:34:25.403Z,14.18
2023-02-16T01:36:52.054Z,14.82
2023-02-16T01:39:19.648Z,13.93
2023-02-16T01:44:27.397Z,13.88
2023-02-16T01:49:38.285Z,18.92
2023-02-16T01:52:21.128Z,17.58
2023-02-16T01:54:53.805Z,18.15
2023-02-16T01:57:29.199Z,17.92
2023-02-16T02:02:36.519Z,20.38
2023-02-16T02:05:28.690Z,19.25
2023-02-16T02:08:21.365Z,20.98
2023-02-16T02:11:04.984Z,19.60
2023-02-16T02:13:52.385Z,21.27
2023-02-16T02:16:21.344Z,19.10
2023-02-16T02:18:48.463Z,18.60
2023-02-16T02:27:27.115Z,18.38
2023-02-16T02:30:02.697Z,19.60
2023-02-16T02:32:38.642Z,19.10
2023-02-16T02:35:32.562Z,18.88
2023-02-16T02:38:24.065Z,18.20
2023-02-16T02:41:15.933Z,15.32
2023-02-16T02:43:47.471Z,17.53
2023-02-16T02:46:21.279Z,17.90
2023-02-16T02:48:47.884Z,17.77
2023-02-16T02:51:30.037Z,17.20
2023-02-16T02:54:37.569Z,17.92
2023-02-16T03:00:13.038Z,18.25
2023-02-16T03:02:39.656Z,17.50
2023-02-16T03:05:06.844Z,19.98
2023-02-16T03:07:48.511Z,19.15
2023-02-16T03:10:39.683Z,13.02
2023-02-16T03:13:08.975Z,17.55
2023-02-16T03:15:35.567Z,16.70
2023-02-16T03:18:22.130Z,18.15
2023-02-16T03:21:08.652Z,17.80
2023-02-16T03:23:55.174Z,17.77
2023-02-16T03:26:41.787Z,16.98
2023-02-16T03:29:24.533Z,15.55
2023-02-16T03:31:52.538Z,15.88
2023-02-16T03:34:19.910Z,15.25
2023-02-16T03:36:50.331Z,13.93
2023-02-16T03:39:17.560Z,12.48
2023-02-16T03:41:47.266Z,13.10
2023-02-16T03:44:13.905Z,14.15
2023-02-16T03:46:40.643Z,15.48
2023-02-16T03:49:07.231Z,15.23
2023-02-16T03:51:33.913Z,15.18
2023-02-16T03:54:00.934Z,15.57
2023-02-16T03:56:27.749Z,14.93
2023-02-16T03:58:54.379Z,16.08
2023-02-16T04:01:21.029Z,15.50
2023-02-16T04:03:47.679Z,13.50
2023-02-16T04:06:14.353Z,15.05
2023-02-16T04:08:41.017Z,16.20
2023-02-16T04:11:27.705Z,13.38
2023-02-16T04:13:54.353Z,13.82
2023-02-16T04:16:21.023Z,13.40
2023-02-16T04:18:47.733Z,14.30
2023-02-16T04:21:14.416Z,15.30
2023-02-16T04:23:41.069Z,15.07
2023-02-16T04:26:07.790Z,13.55
2023-02-16T04:28:34.406Z,15.30
2023-02-16T04:31:01.099Z,14.63
2023-02-16T04:33:27.801Z,14.43
2023-02-16T04:35:54.429Z,16.10
2023-02-16T04:38:21.041Z,14.10
2023-02-16T04:40:47.698Z,13.73
2023-02-16T04:43:14.300Z,13.93
2023-02-16T04:45:40.923Z,11.65
2023-02-16T04:48:07.578Z,12.52
2023-02-16T04:50:34.365Z,13.25
2023-02-16T04:53:01.005Z,13.13
2023-02-16T04:55:27.726Z,13.80
2023-02-16T04:57:54.402Z,12.45
2023-02-16T05:00:21.195Z,13.48
2023-02-16T05:02:47.849Z,12.50
2023-02-16T05:05:14.440Z,15.05
2023-02-16T05:07:41.082Z,14.52
2023-02-16T05:10:08.123Z,14.00
2023-02-16T05:12:54.834Z,13.63
2023-02-16T05:15:21.449Z,16.17
2023-02-16T05:17:48.112Z,14.55
2023-02-16T05:20:14.792Z,15.75
2023-02-16T05:22:43.372Z,16.15
2023-02-16T05:25:10.021Z,14.80
2023-02-16T05:27:37.046Z,17.48
2023-02-16T05:30:03.901Z,16.83
2023-02-16T05:32:30.653Z,15.27
2023-02-16T05:34:57.286Z,14.05
2023-02-16T05:37:23.917Z,13.52
2023-02-16T05:39:52.673Z,15.18
2023-02-16T05:42:19.307Z,13.57
2023-02-16T05:44:45.985Z,13.75
2023-02-16T05:47:12.610Z,15.68
2023-02-16T05:49:39.307Z,14.40
2023-02-16T05:52:05.982Z,13.40
2023-02-16T05:54:32.786Z,11.38
2023-02-16T05:56:59.396Z,10.77
2023-02-16T05:59:26.034Z,10.25
2023-02-16T06:01:52.864Z,12.43
2023-02-16T06:04:19.605Z,11.48
2023-02-16T06:06:46.357Z,11.82
2023-02-16T06:09:12.903Z,10.07
2023-02-16T06:11:39.573Z,19.23
2023-02-16T06:14:09.652Z,23.73
2023-02-16T06:16:37.110Z,29.52
2023-02-16T06:19:03.855Z,31.50
2023-02-16T06:21:30.661Z,32.22
2023-02-16T06:23:57.294Z,35.33
2023-02-16T06:26:24.078Z,31.73
2023-02-16T06:28:50.758Z,34.13
2023-02-16T06:31:17.633Z,30.70
2023-02-16T06:33:44.504Z,28.10
2023-02-16T06:36:11.216Z,33.53
2023-02-16T06:38:37.943Z,28.67
2023-02-16T06:41:05.536Z,32.72
2023-02-16T06:43:32.510Z,28.88
2023-02-16T06:45:59.133Z,29.38
2023-02-16T06:48:25.776Z,31.60
2023-02-16T06:50:52.566Z,31.25
2023-02-16T06:53:20.265Z,26.00
2023-02-16T06:55:47.073Z,28.90
2023-02-16T06:58:13.750Z,31.73
2023-02-16T07:00:40.377Z,32.35
2023-02-16T07:03:07.089Z,29.77
2023-02-16T07:05:33.786Z,27.38
2023-02-16T07:08:00.411Z,23.73
2023-02-16T07:10:29.310Z,23.90
2023-02-16T07:13:01.238Z,20.88
2023-02-16T07:15:27.910Z,21.98
2023-02-16T07:17:55.090Z,20.15
2023-02-16T07:20:21.868Z,21.02
2023-02-16T07:22:48.449Z,21.08
2023-02-16T07:25:15.107Z,20.25
2023-02-16T07:27:41.707Z,17.70
2023-02-16T07:30:09.012Z,17.85
2023-02-16T07:32:35.701Z,19.70
2023-02-16T07:35:02.248Z,20.33
2023-02-16T07:37:28.855Z,16.95
2023-02-16T07:39:55.981Z,15.40
2023-02-16T07:42:23.420Z,17.67
2023-02-16T07:44:50.114Z,16.58
2023-02-16T07:47:16.803Z,13.20
2023-02-16T07:49:43.434Z,16.05
2023-02-16T07:52:10.128Z,16.73
2023-02-16T07:54:36.803Z,15.55
2023-02-16T07:57:03.449Z,15.27
2023-02-16T07:59:30.137Z,13.80
2023-02-16T08:01:56.801Z,15.18
2023-02-16T08:04:23.443Z,16.83
2023-02-16T08:06:50.910Z,15.55
2023-02-16T08:09:17.628Z,16.80
2023-02-16T08:11:44.642Z,15.57
2023-02-16T08:14:11.260Z,16.42
2023-02-16T08:16:38.044Z,15.60
2023-02-16T08:19:04.779Z,18.67
2023-02-16T08:21:34.086Z,17.42
2023-02-16T08:24:02.447Z,16.45
2023-02-16T08:26:33.236Z,15.27
2023-02-16T08:28:59.839Z,13.48
2023-02-16T08:31:29.870Z,13.35
2023-02-16T08:33:57.552Z,12.50
2023-02-16T08:36:26.318Z,13.35
2023-02-16T08:38:53.703Z,11.70
2023-02-16T08:41:21.549Z,12.88
2023-02-16T08:43:48.544Z,13.63
2023-02-16T08:46:15.466Z,10.70
2023-02-16T08:48:45.063Z,11.32
2023-02-16T08:51:15.894Z,11.43
2023-02-16T08:53:42.594Z,10.02
2023-02-16T08:56:10.934Z,13.13
2023-02-16T08:58:37.804Z,10.10
2023-02-16T09:01:11.556Z,9.88
2023-02-16T09:03:39.502Z,10.00
2023-02-16T09:06:06.556Z,9.48
2023-02-16T09:08:33.331Z,9.23
2023-02-16T09:11:02.486Z,11.38
2023-02-16T09:13:29.453Z,9.88
2023-02-16T09:16:02.494Z,8.98
2023-02-16T09:18:32.476Z,13.20
2023-02-16T09:21:03.213Z,13.23
2023-02-16T09:23:30.656Z,11.43
2023-02-16T09:25:57.875Z,10.15
2023-02-16T09:28:24.811Z,14.18
2023-02-16T09:30:51.511Z,8.05
2023-02-16T09:33:18.257Z,8.27
2023-02-16T09:35:44.949Z,8.73
2023-02-16T09:38:11.636Z,9.40
2023-02-16T09:40:38.337Z,8.57
2023-02-16T09:43:15.138Z,8.75
2023-02-16T09:45:43.554Z,9.48
2023-02-16T09:48:19.932Z,8.35
2023-02-16T09:50:54.351Z,8.65
2023-02-16T09:53:41.815Z,7.53
2023-02-16T09:56:29.536Z,7.95
2023-02-16T09:59:01.640Z,9.45
2023-02-16T10:01:37.290Z,10.68
2023-02-16T10:04:35.265Z,11.63
2023-02-16T10:07:40.746Z,11.07
2023-02-16T10:10:08.071Z,10.15
2023-02-16T10:12:38.907Z,10.00
2023-02-16T10:15:09.335Z,10.57
2023-02-16T10:20:16.669Z,10.88
2023-02-16T10:25:45.243Z,11.10
2023-02-16T10:28:23.200Z,10.45
2023-02-16T10:30:53.582Z,10.00
2023-02-16T10:33:43.083Z,10.48
2023-02-16T10:36:35.597Z,10.75
2023-02-16T10:39:12.635Z,9.32
2023-02-16T10:41:42.740Z,11.00
2023-02-16T10:44:13.547Z,9.07
2023-02-16T10:46:45.281Z,8.68
2023-02-16T10:49:14.065Z,9.40
2023-02-16T10:51:40.873Z,8.90
2023-02-16T10:54:11.937Z,8.18
2023-02-16T10:57:01.081Z,10.02
2023-02-16T10:59:40.919Z,9.07
2023-02-16T11:02:25.697Z,8.45
2023-02-16T11:04:53.524Z,8.15
2023-02-16T11:07:23.396Z,7.53
2023-02-16T11:09:53.726Z,7.95
2023-02-16T11:12:40.517Z,8.25
2023-02-16T11:15:25.244Z,8.40
2023-02-16T11:17:53.695Z,8.60
2023-02-16T11:23:36.706Z,7.80
2023-02-16T11:26:06.925Z,8.27
2023-02-16T11:28:39.912Z,8.07
2023-02-16T11:31:30.226Z,9.68
2023-02-16T11:34:08.293Z,8.60
2023-02-16T11:36:37.552Z,8.80
2023-02-16T11:39:21.137Z,7.95
2023-02-16T11:41:51.951Z,10.20
2023-02-16T11:44:39.601Z,7.90
2023-02-16T11:47:09.133Z,8.15
2023-02-16T11:49:38.479Z,8.55
2023-02-16T11:52:29.478Z,9.35
2023-02-16T11:54:57.878Z,7.07
2023-02-16T11:57:33.636Z,7.93
2023-02-16T12:00:01.193Z,7.22
2023-02-16T12:02:42.201Z,7.70
2023-02-16T12:05:48.761Z,6.70
2023-02-16T12:08:37.178Z,7.68
2023-02-16T12:11:39.935Z,5.95
2023-02-16T12:14:16.870Z,5.60
2023-02-16T12:17:04.578Z,5.68
2023-02-16T12:19:41.508Z,6.05
2023-02-16T12:22:29.826Z,7.63
2023-02-16T12:25:25.741Z,6.70
2023-02-16T12:28:15.967Z,6.40
2023-02-16T12:30:53.006Z,8.95
2023-02-16T12:33:49.611Z,5.30
2023-02-16T12:39:05.595Z,5.63
2023-02-16T12:41:41.174Z,7.10
2023-02-16T12:44:15.288Z,6.07
2023-02-16T12:46:45.812Z,5.28
2023-02-16T12:49:35.957Z,6.25
2023-02-16T12:52:13.006Z,6.72
2023-02-16T12:54:45.485Z,6.07
2023-02-16T12:57:13.807Z,7.05
2023-02-16T12:59:49.233Z,6.93
2023-02-16T13:02:26.900Z,7.57
2023-02-16T13:05:12.798Z,7.60
2023-02-16T13:07:42.090Z,7.38
2023-02-16T13:13:04.766Z,6.65
2023-02-16T13:15:41.140Z,6.03
2023-02-16T13:18:15.309Z,6.97
2023-02-16T13:20:45.929Z,5.75
2023-02-16T13:23:50.577Z,5.93
2023-02-16T13:26:43.025Z,6.28
2023-02-16T13:29:28.939Z,6.25
2023-02-16T13:35:13.969Z,6.63
2023-02-16T13:38:05.157Z,6.70
2023-02-16T13:43:40.973Z,8.10
2023-02-16T13:46:12.953Z,6.20
2023-02-16T13:48:48.089Z,6.82
2023-02-16T13:51:18.179Z,7.13
2023-02-16T13:53:58.403Z,6.13
2023-02-16T13:59:26.499Z,5.78
2023-02-16T14:01:54.231Z,6.25
2023-02-16T14:12:31.890Z,6.45
2023-02-16T14:15:00.871Z,6.13
2023-02-16T14:17:29.658Z,5.78
2023-02-16T14:19:59.622Z,6.20
2023-02-16T14:22:34.298Z,5.85
2023-02-16T14:25:02.157Z,5.68
2023-02-16T14:27:51.511Z,5.22
2023-02-16T14:38:37.699Z,6.38
2023-02-16T14:41:08.657Z,6.05
2023-02-16T14:43:45.626Z,5.18
2023-02-16T14:46:30.593Z,4.93
2023-02-16T14:49:38.031Z,5.57
2023-02-16T14:55:19.971Z,5.80
2023-02-16T14:57:51.731Z,6.75
2023-02-16T15:00:24.771Z,4.90
2023-02-16T15:03:00.473Z,5.40
2023-02-16T15:05:29.681Z,4.90
2023-02-16T15:08:24.177Z,5.07
2023-02-16T15:10:54.147Z,5.75
2023-02-16T15:13:21.836Z,5.95
2023-02-16T15:15:50.560Z,7.75
2023-02-16T15:18:23.753Z,5.85
2023-02-16T15:20:53.033Z,6.78
2023-02-16T15:23:23.857Z,5.20
2023-02-16T15:26:08.337Z,6.10
2023-02-16T15:28:37.430Z,5.78
2023-02-16T15:31:05.933Z,6.13
2023-02-16T15:34:00.589Z,5.35
2023-02-16T15:36:43.794Z,6.60
2023-02-16T15:39:15.118Z,6.15
2023-02-16T15:41:45.472Z,6.65
2023-02-16T15:44:28.059Z,6.72
2023-02-16T15:47:07.214Z,6.55
2023-02-16T15:49:34.977Z,6.38
2023-02-16T15:52:01.676Z,6.53
2023-02-16T15:54:31.178Z,5.75
2023-02-16T15:57:00.295Z,7.45
2023-02-16T15:59:48.895Z,6.97
2023-02-16T16:02:18.712Z,5.90
2023-02-16T16:05:01.207Z,6.13
2023-02-16T16:07:32.035Z,7.80
2023-02-16T16:09:58.894Z,6.43
2023-02-16T16:12:25.711Z,5.65
2023-02-16T16:14:57.005Z,5.63
2023-02-16T16:17:29.729Z,5.50
2023-02-16T16:22:34.844Z,6.90
2023-02-16T16:25:01.867Z,6.22
2023-02-16T16:27:31.481Z,6.45
2023-02-16T16:30:28.054Z,5.95
2023-02-16T16:33:12.793Z,7.82
2023-02-16T16:35:43.898Z,6.07
2023-02-16T16:38:28.273Z,7.28
2023-02-16T16:40:56.699Z,7.13
2023-02-16T16:43:30.052Z,8.48
2023-02-16T16:46:17.972Z,9.45
2023-02-16T16:48:47.259Z,5.13
2023-02-16T16:54:05.631Z,7.00
2023-02-16T16:56:36.179Z,7.00
2023-02-16T16:59:03.009Z,6.93
2023-02-16T17:01:30.023Z,6.63
2023-02-16T17:03:57.039Z,5.65
2023-02-16T17:06:24.068Z,6.18
2023-02-16T17:08:50.806Z,3.80
2023-02-16T17:11:34.145Z,4.35
2023-02-16T17:14:08.828Z,5.53
2023-02-16T17:16:37.888Z,6.40
2023-02-16T17:19:04.493Z,4.95
2023-02-16T17:21:31.136Z,5.43
2023-02-16T17:23:57.744Z,4.90
2023-02-16T17:26:24.588Z,5.30
2023-02-16T17:28:51.399Z,5.57
2023-02-16T17:31:18.120Z,5.40
2023-02-16T17:33:44.850Z,6.07
2023-02-16T17:36:12.778Z,5.78
2023-02-16T17:38:39.496Z,4.43
2023-02-16T17:41:06.201Z,3.95
2023-02-16T17:43:32.864Z,4.72
2023-02-16T17:46:01.251Z,4.55
2023-02-16T17:48:30.209Z,5.85
2023-02-16T17:50:57.471Z,5.00
2023-02-16T17:53:24.915Z,4.90
2023-02-16T17:55:53.175Z,4.80
2023-02-16T17:58:20.028Z,4.63
2023-02-16T18:00:46.614Z,4.68
2023-02-16T18:03:13.238Z,5.15
2023-02-16T18:05:39.908Z,6.65
2023-02-16T18:08:06.737Z,5.55
2023-02-16T18:10:37.839Z,5.88
2023-02-16T18:13:05.434Z,6.43
2023-02-16T18:15:32.052Z,5.82
2023-02-16T18:17:58.785Z,7.38
2023-02-16T18:20:26.484Z,7.00
2023-02-16T18:22:53.605Z,5.25
2023-02-16T18:25:20.237Z,5.88
2023-02-16T18:27:46.858Z,6.32
2023-02-16T18:30:14.084Z,5.75
2023-02-16T18:32:41.886Z,4.65
2023-02-16T18:35:09.189Z,5.68
2023-02-16T18:37:36.000Z,5.80
2023-02-16T18:40:03.399Z,6.60
2023-02-16T18:42:30.034Z,7.07
2023-02-16T18:44:56.665Z,7.47
2023-02-16T18:47:23.515Z,6.70
2023-02-16T18:49:50.596Z,5.28
2023-02-16T18:52:17.265Z,5.78
2023-02-16T18:54:43.864Z,6.90
2023-02-16T18:57:10.492Z,6.97
2023-02-16T18:59:37.065Z,9.52
2023-02-16T19:02:03.768Z,10.13
2023-02-16T19:04:30.608Z,7.85
2023-02-16T19:06:58.325Z,6.80
2023-02-16T19:09:25.271Z,7.75
2023-02-16T19:11:51.949Z,8.50
2023-02-16T19:14:18.871Z,12.05
2023-02-16T19:16:46.208Z,8.88
2023-02-16T19:19:12.946Z,11.23
2023-02-16T19:21:40.127Z,8.15
2023-02-16T19:24:07.751Z,6.43
2023-02-16T19:26:34.412Z,8.85
2023-02-16T19:29:01.027Z,7.57
2023-02-16T19:31:28.922Z,6.47
2023-02-16T19:33:55.923Z,6.03
2023-02-16T19:36:22.712Z,7.30
2023-02-16T19:38:49.487Z,6.90
2023-02-16T19:41:20.281Z,5.50
2023-02-16T19:43:46.940Z,5.38
2023-02-16T19:46:13.968Z,6.88
2023-02-16T19:48:40.775Z,7.22
2023-02-16T19:51:08.174Z,6.18
2023-02-16T19:53:35.826Z,7.30
2023-02-16T19:56:05.465Z,6.47
2023-02-16T19:58:32.282Z,6.85
2023-02-16T20:00:59.010Z,6.75
2023-02-16T20:03:25.697Z,5.80
2023-02-16T20:05:52.395Z,6.68
2023-02-16T20:08:18.979Z,6.60
2023-02-16T20:10:45.561Z,6.55
2023-02-16T20:13:12.205Z,6.38
2023-02-16T20:15:38.875Z,6.15
2023-02-16T20:18:07.236Z,5.88
2023-02-16T20:20:34.472Z,5.95
2023-02-16T20:23:01.106Z,5.75
2023-02-16T20:25:27.858Z,6.57
2023-02-16T20:27:56.095Z,6.28
2023-02-16T20:30:25.214Z,7.22
2023-02-16T20:32:51.946Z,5.68
2023-02-16T20:35:18.572Z,5.93
2023-02-16T20:37:45.141Z,4.65
2023-02-16T20:40:12.185Z,5.70
2023-02-16T20:42:38.752Z,6.50
2023-02-16T20:45:05.818Z,6.68
2023-02-16T20:47:32.419Z,6.05
2023-02-16T20:49:59.093Z,5.78
2023-02-16T20:52:25.682Z,4.82
2023-02-16T20:54:52.496Z,5.05
2023-02-16T20:57:26.653Z,5.30
2023-02-16T20:59:54.149Z,5.43
2023-02-16T21:02:20.756Z,6.82
2023-02-16T21:04:47.448Z,5.22
2023-02-16T21:07:14.058Z,5.80
2023-02-16T21:09:40.804Z,7.03
2023-02-16T21:12:07.458Z,5.72
2023-02-16T21:14:34.231Z,5.38
2023-02-16T21:17:00.852Z,5.30
2023-02-16T21:19:27.450Z,6.65
2023-02-16T21:21:54.073Z,5.72
2023-02-16T21:24:20.794Z,4.93
2023-02-16T21:26:47.500Z,6.32
2023-02-16T21:29:14.300Z,6.93
2023-02-16T21:31:41.047Z,7.22
2023-02-16T21:34:07.676Z,6.82
2023-02-16T21:36:34.599Z,5.60
2023-02-16T21:39:02.789Z,6.32
2023-02-16T21:41:29.694Z,4.50
2023-02-16T21:44:00.749Z,5.05
2023-02-16T21:46:30.424Z,4.70
2023-02-16T21:48:57.512Z,5.80
2023-02-16T21:51:26.997Z,5.32
2023-02-16T21:53:53.816Z,5.53
2023-02-16T21:56:30.390Z,4.93
2023-02-16T21:58:57.674Z,5.10
2023-02-16T22:01:29.074Z,4.93
2023-02-16T22:03:58.463Z,5.25
2023-02-16T22:06:26.768Z,5.57
2023-02-16T22:08:53.552Z,5.65
2023-02-16T22:11:20.228Z,5.50
2023-02-16T22:13:47.055Z,4.55
2023-02-16T22:16:16.486Z,5.10
2023-02-16T22:18:43.109Z,5.50
2023-02-16T22:21:09.896Z,5.63
2023-02-16T22:23:36.897Z,5.30
2023-02-16T22:26:04.678Z,5.30
2023-02-16T22:28:31.851Z,5.15
2023-02-16T22:30:58.560Z,5.78
2023-02-16T22:33:25.320Z,5.25
2023-02-16T22:35:51.909Z,5.30
2023-02-16T22:38:18.563Z,6.05
2023-02-16T22:40:45.257Z,5.32
2023-02-16T22:43:11.901Z,4.93
2023-02-16T22:45:38.628Z,5.60
2023-02-16T22:48:05.338Z,5.70
2023-02-16T22:50:31.924Z,5.78
2023-02-16T22:52:58.510Z,5.88
2023-02-16T22:55:25.123Z,4.75
2023-02-16T22:57:52.371Z,4.70
2023-02-16T23:00:19.060Z,5.70
2023-02-16T23:02:45.744Z,5.30
2023-02-16T23:05:12.305Z,5.05
2023-02-16T23:07:39.018Z,5.75
2023-02-16T23:10:06.284Z,5.00
2023-02-16T23:12:32.903Z,4.45
2023-02-16T23:14:59.490Z,4.72
2023-02-16T23:17:26.089Z,5.13
2023-02-16T23:19:52.776Z,5.97
2023-02-16T23:22:19.421Z,6.57
2023-02-16T23:25:05.944Z,5.63
2023-02-16T23:27:32.571Z,4.50
2023-02-16T23:29:59.265Z,4.93
2023-02-16T23:32:26.040Z,5.07
2023-02-16T23:34:52.681Z,5.20
2023-02-16T23:37:19.428Z,6.05
2023-02-16T23:39:46.123Z,5.68
2023-02-16T23:42:12.698Z,5.32
2023-02-16T23:44:39.373Z,5.55
2023-02-16T23:47:05.979Z,5.13
2023-02-16T23:49:32.577Z,4.55
2023-02-16T23:51:59.206Z,5.13
2023-02-16T23:54:26.020Z,5.38
2023-02-16T23:56:52.928Z,5.60
2023-02-16T23:59:19.534Z,6.00
